Time;durP1;ratioP1;P1;durP2;ratioP2;P2;SDS_P1;SDS_P2;PMS_P1;PMS_P2;Temp;Humidity;BMP_temperature;BMP_pressure;BME280_temperature;BME280_humidity;BME280_pressure;Samples;Min_cycle;Max_cycle;Signal;HPM_P1;HPM_P2
2021/10/29 00:00:40;;;;;;;;;;;14.40;99.90;;;;;;5139160;27;20363;-70
2021/10/29 00:03:06;;;;;;;;;;;14.50;99.90;;;;;;5138844;27;19908;-71
2021/10/29 00:05:32;;;;;;;;;;;14.50;99.90;;;;;;5138576;27;19908;-73
2021/10/29 00:07:58;;;;;;;;;;;14.50;99.90;;;;;;5139367;27;20414;-71
2021/10/29 00:10:24;;;;;;;;;;;14.60;99.90;;;;;;5138686;27;19998;-71
2021/10/29 00:12:50;;;;;;;;;;;14.60;99.90;;;;;;5138897;27;19919;-72
2021/10/29 00:15:16;;;;;;;;;;;14.60;99.90;;;;;;5120151;27;20308;-71
2021/10/29 00:17:41;;;;;;;;;;;14.60;99.90;;;;;;5120148;27;19908;-71
2021/10/29 00:20:07;;;;;;;;;;;14.50;99.90;;;;;;5139100;27;19947;-70
2021/10/29 00:22:33;;;;;;;;;;;14.50;99.90;;;;;;5138361;27;19911;-72
2021/10/29 00:24:59;;;;;;;;;;;14.50;99.90;;;;;;5138448;27;20291;-70
2021/10/29 00:27:24;;;;;;;;;;;14.50;99.90;;;;;;5138366;27;19908;-72
2021/10/29 00:29:50;;;;;;;;;;;14.40;99.90;;;;;;5138296;27;19907;-70
2021/10/29 00:32:15;;;;;;;;;;;14.40;99.90;;;;;;5138334;27;19907;-70
2021/10/29 00:34:41;;;;;;;;;;;14.40;99.90;;;;;;5138447;27;19929;-72
2021/10/29 00:37:07;;;;;;;;;;;14.40;99.90;;;;;;5138205;27;19961;-70
2021/10/29 00:39:32;;;;;;;;;;;14.50;99.90;;;;;;5138430;27;19911;-72
2021/10/29 00:41:58;;;;;;;;;;;14.40;99.90;;;;;;5138910;27;19907;-71
2021/10/29 00:44:24;;;;;;;;;;;14.40;99.90;;;;;;5138064;27;19907;-73
2021/10/29 00:46:50;;;;;;;;;;;14.40;99.90;;;;;;5137871;27;19914;-70
2021/10/29 00:49:16;;;;;;;;;;;14.30;99.90;;;;;;5137963;27;19907;-72
2021/10/29 00:51:41;;;;;;;;;;;14.30;99.90;;;;;;5137913;27;20017;-72
2021/10/29 00:54:07;;;;;;;;;;;14.30;99.90;;;;;;5138404;27;19911;-71
2021/10/29 00:56:32;;;;;;;;;;;14.20;99.90;;;;;;5137695;27;19915;-72
2021/10/29 00:58:59;;;;;;;;;;;14.30;99.90;;;;;;5137758;27;20006;-72
2021/10/29 01:01:24;;;;;;;;;;;14.30;99.90;;;;;;5137986;27;19915;-71
2021/10/29 01:03:50;;;;;;;;;;;14.30;99.90;;;;;;5137668;27;19908;-72
2021/10/29 01:06:15;;;;;;;;;;;14.30;99.90;;;;;;5137472;27;20324;-72
2021/10/29 01:08:41;;;;;;;;;;;14.30;99.90;;;;;;5137938;27;19914;-70
2021/10/29 01:11:11;;;;;;;;;;;14.30;99.90;;;;;;5137587;27;19997;-73
2021/10/29 01:13:36;;;;;;;;;;;14.30;99.90;;;;;;5137540;27;19924;-70
2021/10/29 01:16:02;;;;;;;;;;;14.30;99.90;;;;;;5137413;27;19915;-73
2021/10/29 01:18:27;;;;;;;;;;;14.20;99.90;;;;;;5138007;27;20268;-69
2021/10/29 01:20:53;;;;;;;;;;;14.20;99.90;;;;;;5137374;27;19914;-71
2021/10/29 01:23:18;;;;;;;;;;;14.10;99.90;;;;;;5137556;27;20001;-67
2021/10/29 01:25:44;;;;;;;;;;;14.20;99.90;;;;;;5137124;27;20371;-70
2021/10/29 01:28:11;;;;;;;;;;;14.20;99.90;;;;;;5137586;27;19983;-73
2021/10/29 01:30:37;;;;;;;;;;;14.20;99.90;;;;;;5137192;27;19948;-69
2021/10/29 01:33:02;;;;;;;;;;;14.10;99.90;;;;;;5137140;27;19955;-68
2021/10/29 01:35:28;;;;;;;;;;;14.20;99.90;;;;;;5137020;27;19965;-71
2021/10/29 01:37:54;;;;;;;;;;;14.20;99.90;;;;;;5137305;27;19907;-71
2021/10/29 01:40:19;;;;;;;;;;;14.20;99.90;;;;;;5136971;27;20029;-69
2021/10/29 01:42:46;;;;;;;;;;;14.20;99.90;;;;;;5137481;27;19915;-72
2021/10/29 01:45:11;;;;;;;;;;;14.20;99.90;;;;;;5136686;27;19999;-71
2021/10/29 01:47:37;;;;;;;;;;;14.30;99.90;;;;;;5137149;27;19951;-70
2021/10/29 01:50:03;;;;;;;;;;;14.30;99.90;;;;;;5136768;27;19999;-70
2021/10/29 01:52:29;;;;;;;;;;;14.30;99.90;;;;;;5136690;27;19911;-68
2021/10/29 01:54:54;;;;;;;;;;;14.30;99.90;;;;;;5136901;27;20002;-73
2021/10/29 01:57:21;;;;;;;;;;;14.30;99.90;;;;;;5136668;27;19998;-71
2021/10/29 01:59:46;;;;;;;;;;;14.30;99.90;;;;;;5136622;27;19907;-69
2021/10/29 02:02:12;;;;;;;;;;;14.30;99.90;;;;;;5136510;27;20260;-71
2021/10/29 02:04:37;;;;;;;;;;;14.30;99.90;;;;;;5136483;27;20383;-70
2021/10/29 02:07:03;;;;;;;;;;;14.30;99.90;;;;;;5136310;27;19912;-70
2021/10/29 02:09:28;;;;;;;;;;;14.30;99.90;;;;;;5136701;27;19907;-71
2021/10/29 02:11:54;;;;;;;;;;;14.30;99.90;;;;;;5137192;27;19952;-71
2021/10/29 02:14:19;;;;;;;;;;;14.30;99.90;;;;;;5135914;27;19919;-72
2021/10/29 02:16:45;;;;;;;;;;;14.30;99.90;;;;;;5136743;27;20006;-70
2021/10/29 02:19:11;;;;;;;;;;;14.30;99.90;;;;;;5135648;27;19998;-70
2021/10/29 02:21:37;;;;;;;;;;;14.30;99.90;;;;;;5136454;27;19911;-72
2021/10/29 02:24:03;;;;;;;;;;;14.40;99.90;;;;;;5136308;27;19973;-70
2021/10/29 02:26:28;;;;;;;;;;;14.40;99.90;;;;;;5135823;27;19908;-71
2021/10/29 02:28:54;;;;;;;;;;;14.40;99.90;;;;;;5136014;27;20275;-71
2021/10/29 02:31:20;;;;;;;;;;;14.40;99.90;;;;;;5136287;27;20371;-71
2021/10/29 02:33:46;;;;;;;;;;;14.40;99.90;;;;;;5135961;27;19907;-72
2021/10/29 02:36:11;;;;;;;;;;;14.40;99.90;;;;;;5135809;27;19911;-71
2021/10/29 02:38:37;;;;;;;;;;;14.40;99.90;;;;;;5135820;27;20428;-71
2021/10/29 02:41:02;;;;;;;;;;;14.40;99.90;;;;;;5136041;27;19999;-70
2021/10/29 02:43:29;;;;;;;;;;;14.40;99.90;;;;;;5135699;27;20286;-69
2021/10/29 02:45:55;;;;;;;;;;;14.40;99.90;;;;;;5135671;27;19908;-72
2021/10/29 02:48:21;;;;;;;;;;;14.40;99.90;;;;;;5135595;27;19908;-70
2021/10/29 02:50:46;;;;;;;;;;;14.40;99.90;;;;;;5117131;27;19914;-71
2021/10/29 02:53:12;;;;;;;;;;;14.40;99.90;;;;;;5136089;27;19908;-72
2021/10/29 02:55:37;;;;;;;;;;;14.40;99.90;;;;;;5135390;27;19912;-68
2021/10/29 02:58:03;;;;;;;;;;;14.40;99.90;;;;;;5135468;27;20390;-72
2021/10/29 03:00:29;;;;;;;;;;;14.40;99.90;;;;;;5135427;27;19913;-72
2021/10/29 03:02:55;;;;;;;;;;;14.40;99.90;;;;;;5135686;27;20334;-70
2021/10/29 03:05:20;;;;;;;;;;;14.40;99.90;;;;;;5135420;27;19912;-72
2021/10/29 03:07:46;;;;;;;;;;;14.40;99.90;;;;;;5135583;27;20001;-71
2021/10/29 03:10:12;;;;;;;;;;;14.40;99.90;;;;;;5116767;27;19995;-72
2021/10/29 03:12:38;;;;;;;;;;;14.30;99.90;;;;;;5135455;27;19922;-71
2021/10/29 03:15:05;;;;;;;;;;;14.30;99.90;;;;;;5135105;27;19974;-70
2021/10/29 03:17:30;;;;;;;;;;;14.30;99.90;;;;;;5135404;27;19908;-72
2021/10/29 03:19:56;;;;;;;;;;;14.30;99.90;;;;;;5135044;27;19914;-69
2021/10/29 03:22:22;;;;;;;;;;;14.30;99.90;;;;;;5135041;27;19955;-71
2021/10/29 03:24:47;;;;;;;;;;;14.30;99.90;;;;;;5135358;27;19907;-70
2021/10/29 03:27:13;;;;;;;;;;;14.30;99.90;;;;;;5134814;27;19912;-71
2021/10/29 03:29:39;;;;;;;;;;;14.30;99.90;;;;;;5134694;27;20252;-71
2021/10/29 03:32:05;;;;;;;;;;;14.30;99.90;;;;;;5134915;27;19912;-72
2021/10/29 03:34:31;;;;;;;;;;;14.30;99.90;;;;;;5135125;27;19956;-71
2021/10/29 03:36:57;;;;;;;;;;;14.30;99.90;;;;;;5134760;27;20005;-70
2021/10/29 03:39:28;;;;;;;;;;;14.30;99.90;;;;;;5135085;27;19907;-72
2021/10/29 03:41:57;;;;;;;;;;;14.30;99.90;;;;;;5134769;27;19916;-72
2021/10/29 03:46:49;;;;;;;;;;;14.30;99.90;;;;;;5134851;27;20279;-70
2021/10/29 03:49:24;;;;;;;;;;;14.40;99.90;;;;;;5134980;27;19994;-71
2021/10/29 03:51:57;;;;;;;;;;;14.40;99.90;;;;;;5135027;28;20394;-71
2021/10/29 03:54:28;;;;;;;;;;;14.30;99.90;;;;;;5135013;28;19911;-72
2021/10/29 03:57:06;;;;;;;;;;;14.40;99.90;;;;;;5134616;28;19927;-71
2021/10/29 03:59:31;;;;;;;;;;;14.40;99.90;;;;;;5134961;28;19907;-71
2021/10/29 04:01:57;;;;;;;;;;;14.40;99.90;;;;;;5134638;28;20317;-71
2021/10/29 04:04:23;;;;;;;;;;;14.30;99.90;;;;;;5135147;28;20339;-71
2021/10/29 04:06:48;;;;;;;;;;;14.40;99.90;;;;;;5134433;28;19907;-71
2021/10/29 04:09:14;;;;;;;;;;;14.40;99.90;;;;;;5134533;28;20275;-70
2021/10/29 04:11:40;;;;;;;;;;;14.40;99.90;;;;;;5134524;28;20383;-72
2021/10/29 04:14:07;;;;;;;;;;;14.40;99.90;;;;;;5134257;28;19919;-70
2021/10/29 04:16:37;;;;;;;;;;;14.40;99.90;;;;;;5134449;28;19918;-70
2021/10/29 04:19:03;;;;;;;;;;;14.40;99.90;;;;;;5134448;28;19914;-72
2021/10/29 04:21:29;;;;;;;;;;;14.40;99.90;;;;;;5134993;28;20272;-70
2021/10/29 04:23:54;;;;;;;;;;;14.40;99.90;;;;;;5134356;27;19914;-71
2021/10/29 04:26:20;;;;;;;;;;;14.40;99.90;;;;;;5134560;28;20420;-70
2021/10/29 04:28:51;;;;;;;;;;;14.50;99.90;;;;;;5134611;28;19914;-71
2021/10/29 04:31:20;;;;;;;;;;;14.50;99.90;;;;;;5134335;28;20389;-71
2021/10/29 04:33:46;;;;;;;;;;;14.50;99.90;;;;;;5134604;28;19960;-71
2021/10/29 04:36:11;;;;;;;;;;;14.50;99.90;;;;;;5134473;28;19915;-70
2021/10/29 04:38:37;;;;;;;;;;;14.50;99.90;;;;;;5134812;28;19929;-70
2021/10/29 04:41:02;;;;;;;;;;;14.50;99.90;;;;;;5116797;27;19978;-73
2021/10/29 04:43:28;;;;;;;;;;;14.50;99.90;;;;;;5138107;27;20431;-71
2021/10/29 04:45:53;;;;;;;;;;;14.50;99.90;;;;;;5138411;27;20408;-71
2021/10/29 04:48:19;;;;;;;;;;;14.50;99.90;;;;;;5138036;27;19913;-69
2021/10/29 04:50:44;;;;;;;;;;;14.50;99.90;;;;;;5138266;27;19914;-72
2021/10/29 04:53:11;;;;;;;;;;;14.40;99.90;;;;;;5137979;27;19907;-70
2021/10/29 04:55:37;;;;;;;;;;;14.30;99.90;;;;;;5137823;27;19915;-73
2021/10/29 04:58:03;;;;;;;;;;;14.30;99.90;;;;;;5119424;27;20352;-72
2021/10/29 05:00:29;;;;;;;;;;;14.30;99.90;;;;;;5137809;27;19908;-70
2021/10/29 05:02:55;;;;;;;;;;;14.30;99.90;;;;;;5137766;27;19953;-70
2021/10/29 05:05:21;;;;;;;;;;;14.30;99.90;;;;;;5137740;27;20393;-68
2021/10/29 05:07:47;;;;;;;;;;;14.20;99.90;;;;;;5137561;27;20371;-72
2021/10/29 05:10:13;;;;;;;;;;;14.30;99.90;;;;;;5137601;27;19960;-72
2021/10/29 05:12:38;;;;;;;;;;;14.30;99.90;;;;;;5137543;27;19916;-70
2021/10/29 05:15:04;;;;;;;;;;;14.20;99.90;;;;;;5137755;27;19908;-70
2021/10/29 05:17:29;;;;;;;;;;;14.20;99.90;;;;;;5137756;27;19994;-69
2021/10/29 05:19:55;;;;;;;;;;;14.20;99.90;;;;;;5137394;27;19908;-71
2021/10/29 05:22:21;;;;;;;;;;;14.20;99.90;;;;;;5137814;27;19915;-72
2021/10/29 05:24:47;;;;;;;;;;;14.20;99.90;;;;;;5137315;27;19911;-70
2021/10/29 05:27:12;;;;;;;;;;;14.20;99.90;;;;;;5137238;27;20315;-71
2021/10/29 05:29:38;;;;;;;;;;;14.20;99.90;;;;;;5118775;27;19930;-72
2021/10/29 05:32:04;;;;;;;;;;;14.10;99.90;;;;;;5137439;27;19911;-72
2021/10/29 05:34:29;;;;;;;;;;;14.00;99.90;;;;;;5137096;27;19907;-71
2021/10/29 05:36:55;;;;;;;;;;;13.90;99.90;;;;;;5136974;27;19912;-73
2021/10/29 05:39:21;;;;;;;;;;;13.90;99.90;;;;;;5137085;27;19907;-70
2021/10/29 05:41:48;;;;;;;;;;;13.90;99.90;;;;;;5137054;27;19914;-72
2021/10/29 05:44:17;;;;;;;;;;;13.90;99.90;;;;;;5137246;27;20287;-72
2021/10/29 05:46:43;;;;;;;;;;;13.80;99.90;;;;;;5136739;27;19914;-73
2021/10/29 05:49:11;;;;;;;;;;;13.80;99.90;;;;;;5137190;27;19998;-71
2021/10/29 05:51:44;;;;;;;;;;;13.80;99.90;;;;;;5136731;27;20002;-70
2021/10/29 05:56:39;;;;;;;;;;;13.80;99.90;;;;;;5137458;27;19911;-70
2021/10/29 05:59:05;;;;;;;;;;;13.70;99.90;;;;;;5136633;27;19912;-70
2021/10/29 06:01:32;;;;;;;;;;;13.70;99.90;;;;;;5136852;27;19922;-71
2021/10/29 06:03:58;;;;;;;;;;;13.70;99.90;;;;;;5136521;27;19931;-71
2021/10/29 06:06:23;;;;;;;;;;;13.70;99.90;;;;;;5136342;27;20378;-72
2021/10/29 06:08:49;;;;;;;;;;;13.70;99.90;;;;;;5136772;27;19964;-71
2021/10/29 06:11:14;;;;;;;;;;;13.70;99.90;;;;;;5136384;27;19956;-72
2021/10/29 06:13:41;;;;;;;;;;;13.60;99.90;;;;;;5136235;27;19942;-71
2021/10/29 06:16:08;;;;;;;;;;;13.60;99.90;;;;;;5117801;27;19911;-70
2021/10/29 06:18:34;;;;;;;;;;;13.50;99.90;;;;;;5136263;27;19953;-73
2021/10/29 06:21:00;;;;;;;;;;;13.50;99.90;;;;;;5136477;27;19907;-72
2021/10/29 06:23:34;;;;;;;;;;;13.50;99.90;;;;;;5136087;27;20252;-70
2021/10/29 06:26:01;;;;;;;;;;;13.50;99.90;;;;;;5117432;27;19907;-71
2021/10/29 06:28:29;;;;;;;;;;;13.60;99.90;;;;;;5135899;27;19941;-72
2021/10/29 06:30:55;;;;;;;;;;;13.60;99.90;;;;;;5135954;27;19907;-70
2021/10/29 06:33:23;;;;;;;;;;;13.60;99.90;;;;;;5136519;27;19907;-70
2021/10/29 06:35:49;;;;;;;;;;;13.60;99.90;;;;;;5135884;27;19911;-72
2021/10/29 06:38:15;;;;;;;;;;;13.60;99.90;;;;;;5135862;27;19908;-69
2021/10/29 06:40:49;;;;;;;;;;;13.60;99.90;;;;;;5135844;27;20297;-70
2021/10/29 06:43:21;;;;;;;;;;;13.60;99.90;;;;;;5136130;27;19907;-70
2021/10/29 06:46:07;;;;;;;;;;;13.60;99.90;;;;;;5136103;27;20276;-70
2021/10/29 07:42:23;;;;;;;;;;;13.80;99.90;;;;;;5134583;27;20302;-68
2021/10/29 07:44:48;;;;;;;;;;;13.80;99.90;;;;;;5135367;27;19907;-73
2021/10/29 07:47:14;;;;;;;;;;;13.80;99.90;;;;;;5134740;27;19914;-70
2021/10/29 07:49:39;;;;;;;;;;;13.90;99.90;;;;;;5135287;27;19907;-68
2021/10/29 07:52:06;;;;;;;;;;;13.90;99.90;;;;;;5134996;28;20320;-70
2021/10/29 07:54:32;;;;;;;;;;;13.90;99.90;;;;;;5135258;28;19908;-72
2021/10/29 07:56:57;;;;;;;;;;;13.90;99.90;;;;;;5134604;28;20283;-71
2021/10/29 07:59:26;;;;;;;;;;;14.00;99.90;;;;;;5134661;28;19911;-71
2021/10/29 08:01:52;;;;;;;;;;;14.00;99.90;;;;;;5135201;28;19908;-70
2021/10/29 08:04:22;;;;;;;;;;;14.10;99.90;;;;;;5134563;28;19907;-71
2021/10/29 08:06:51;;;;;;;;;;;14.10;99.90;;;;;;5134391;28;20252;-70
2021/10/29 08:09:17;;;;;;;;;;;14.10;99.90;;;;;;5134473;28;19956;-73
2021/10/29 08:11:42;;;;;;;;;;;14.20;99.90;;;;;;5134508;28;19907;-70
2021/10/29 08:14:08;;;;;;;;;;;14.20;99.90;;;;;;5134058;28;19919;-71
2021/10/29 08:16:33;;;;;;;;;;;14.40;99.90;;;;;;5136899;27;19924;-73
2021/10/29 08:18:59;;;;;;;;;;;14.40;99.90;;;;;;5138571;27;19907;-71
2021/10/29 08:21:24;;;;;;;;;;;14.50;99.90;;;;;;5138801;27;19907;-71
2021/10/29 08:23:50;;;;;;;;;;;14.60;99.90;;;;;;5138426;27;20002;-71
2021/10/29 08:26:16;;;;;;;;;;;14.80;99.90;;;;;;5138486;27;20014;-71
2021/10/29 08:28:41;;;;;;;;;;;14.80;99.90;;;;;;5138226;27;19911;-72
2021/10/29 08:31:07;;;;;;;;;;;14.80;99.90;;;;;;5138330;27;20291;-71
2021/10/29 08:33:33;;;;;;;;;;;14.80;99.90;;;;;;5138932;27;19949;-72
2021/10/29 08:36:00;;;;;;;;;;;14.70;99.90;;;;;;5138221;27;20423;-69
2021/10/29 08:38:25;;;;;;;;;;;14.70;99.90;;;;;;5138798;27;19908;-72
2021/10/29 08:40:51;;;;;;;;;;;14.70;99.90;;;;;;5138206;27;20279;-72
2021/10/29 08:43:17;;;;;;;;;;;14.70;99.90;;;;;;5138184;27;19908;-72
2021/10/29 08:45:43;;;;;;;;;;;14.70;99.90;;;;;;5138345;27;19987;-70
2021/10/29 08:48:09;;;;;;;;;;;14.70;99.90;;;;;;5138036;27;19907;-72
2021/10/29 08:50:35;;;;;;;;;;;14.70;99.90;;;;;;5138012;27;20363;-71
2021/10/29 08:53:01;;;;;;;;;;;14.70;99.90;;;;;;5138262;27;19907;-73
2021/10/29 08:55:28;;;;;;;;;;;14.80;99.90;;;;;;5137871;27;19918;-71
2021/10/29 08:57:54;;;;;;;;;;;14.80;99.90;;;;;;5137869;27;19919;-71
2021/10/29 09:00:23;;;;;;;;;;;14.90;99.90;;;;;;5137841;27;19912;-71
2021/10/29 09:03:00;;;;;;;;;;;15.00;99.90;;;;;;5137964;27;19956;-68
2021/10/29 09:05:35;;;;;;;;;;;15.00;99.90;;;;;;5137799;27;19907;-71
2021/10/29 09:32:40;;;;;;;;;;;16.20;99.90;;;;;;5136932;27;19957;-73
2021/10/29 09:35:09;;;;;;;;;;;16.60;99.90;;;;;;5137664;27;19939;-73
2021/10/29 09:37:53;;;;;;;;;;;17.10;99.90;;;;;;5137122;27;20282;-72
2021/10/29 09:40:21;;;;;;;;;;;17.10;99.90;;;;;;5137036;27;20002;-72
2021/10/29 09:42:48;;;;;;;;;;;17.10;99.90;;;;;;5137563;27;19907;-73
2021/10/29 09:45:18;;;;;;;;;;;17.30;99.90;;;;;;5136914;27;19919;-73
2021/10/29 09:47:48;;;;;;;;;;;17.40;99.90;;;;;;5136936;27;19912;-72
2021/10/29 09:50:25;;;;;;;;;;;17.20;99.90;;;;;;5118088;27;20376;-74
2021/10/29 09:53:04;;;;;;;;;;;17.00;99.90;;;;;;5118143;27;19908;-73
2021/10/29 09:55:49;;;;;;;;;;;17.00;99.90;;;;;;5137305;27;19918;-73
2021/10/29 09:58:15;;;;;;;;;;;17.00;99.90;;;;;;5136724;27;19994;-73
2021/10/29 10:00:41;;;;;;;;;;;16.90;99.90;;;;;;5136835;27;19907;-74
2021/10/29 10:03:08;;;;;;;;;;;16.90;99.90;;;;;;5118192;27;19907;-74
2021/10/29 10:05:33;;;;;;;;;;;17.00;99.90;;;;;;5136817;27;19911;-73
2021/10/29 10:08:00;;;;;;;;;;;17.00;99.90;;;;;;5136542;27;19908;-73
2021/10/29 10:10:26;;;;;;;;;;;16.90;99.90;;;;;;5136759;27;19907;-73
2021/10/29 10:12:52;;;;;;;;;;;16.80;99.90;;;;;;5136429;27;20370;-71
2021/10/29 10:15:19;;;;;;;;;;;16.70;99.90;;;;;;5136546;27;19908;-70
2021/10/29 10:17:45;;;;;;;;;;;16.60;99.90;;;;;;5136829;27;19914;-70
2021/10/29 10:20:11;;;;;;;;;;;16.40;99.90;;;;;;5136245;27;19927;-70
2021/10/29 10:22:38;;;;;;;;;;;16.30;99.90;;;;;;5136128;27;19911;-71
2021/10/29 10:25:09;;;;;;;;;;;16.30;99.90;;;;;;5136166;27;19956;-70
2021/10/29 10:40:13;;;;;;;;;;;16.10;99.90;;;;;;5062602;27;19909;-68
2021/10/29 10:47:40;;;;;;;;;;;16.30;99.90;;;;;;5135968;27;19907;-71
2021/10/29 10:50:14;;;;;;;;;;;16.40;99.90;;;;;;5135632;27;19908;-69
2021/10/29 10:55:34;;;;;;;;;;;16.30;99.90;;;;;;5130373;27;20014;-68
2021/10/29 10:58:23;;;;;;;;;;;16.20;99.90;;;;;;5135853;27;19907;-71
2021/10/29 11:01:01;;;;;;;;;;;16.20;99.90;;;;;;5135473;27;19908;-68
2021/10/29 11:04:07;;;;;;;;;;;16.20;99.90;;;;;;5116777;27;19935;-69
2021/10/29 11:07:07;;;;;;;;;;;16.20;99.90;;;;;;5135960;27;19908;-71
2021/10/29 11:12:40;;;;;;;;;;;16.20;99.90;;;;;;5131694;27;19916;-72
2021/10/29 11:15:06;;;;;;;;;;;16.30;99.90;;;;;;5135468;27;19942;-69
2021/10/29 11:17:44;;;;;;;;;;;16.30;99.90;;;;;;5134708;27;20377;-68
2021/10/29 11:20:11;;;;;;;;;;;16.30;99.90;;;;;;5135447;27;19914;-70
2021/10/29 11:22:44;;;;;;;;;;;16.30;99.90;;;;;;5135365;27;19911;-71
2021/10/29 11:25:13;;;;;;;;;;;16.40;99.90;;;;;;5135080;27;19908;-72
2021/10/29 11:27:41;;;;;;;;;;;16.30;99.90;;;;;;5135322;27;20340;-69
2021/10/29 11:30:08;;;;;;;;;;;16.40;99.90;;;;;;5134851;27;19907;-69
2021/10/29 11:32:33;;;;;;;;;;;16.30;99.90;;;;;;5135538;27;20294;-70
2021/10/29 11:35:01;;;;;;;;;;;16.30;99.90;;;;;;5134893;27;19908;-70
2021/10/29 11:37:29;;;;;;;;;;;16.30;99.90;;;;;;5135395;27;20335;-70
2021/10/29 11:39:54;;;;;;;;;;;16.30;99.90;;;;;;5135134;27;19972;-70
2021/10/29 11:42:20;;;;;;;;;;;16.30;99.90;;;;;;5135104;27;20407;-68
2021/10/29 11:44:47;;;;;;;;;;;16.30;99.90;;;;;;5135071;27;20375;-70
2021/10/29 11:47:13;;;;;;;;;;;16.30;99.90;;;;;;5135380;27;19912;-70
2021/10/29 11:49:38;;;;;;;;;;;16.30;99.90;;;;;;5134400;27;19908;-71
2021/10/29 11:52:05;;;;;;;;;;;16.30;99.90;;;;;;5134100;27;20379;-68
2021/10/29 11:54:35;;;;;;;;;;;16.30;99.90;;;;;;5134686;28;19961;-71
2021/10/29 12:07:35;;;;;;;;;;;16.40;99.90;;;;;;5134372;28;20341;-68
2021/10/29 12:10:04;;;;;;;;;;;16.40;99.90;;;;;;5134411;28;20286;-71
2021/10/29 12:12:31;;;;;;;;;;;16.50;99.90;;;;;;5134370;28;19951;-71
2021/10/29 12:15:06;;;;;;;;;;;16.50;99.90;;;;;;5135105;28;20414;-69
2021/10/29 12:20:03;;;;;;;;;;;16.60;99.90;;;;;;5135049;28;19907;-70
2021/10/29 12:22:41;;;;;;;;;;;16.70;99.90;;;;;;5115772;28;19907;-71
2021/10/29 12:25:24;;;;;;;;;;;16.60;99.90;;;;;;5134774;28;20259;-71
2021/10/29 12:47:33;;;;;;;;;;;16.80;99.90;;;;;;5134937;28;19914;-69
2021/10/29 13:03:03;;;;;;;;;;;16.90;99.90;;;;;;5136566;27;19914;-71
2021/10/29 13:05:28;;;;;;;;;;;17.00;99.90;;;;;;5137698;27;20346;-71
2021/10/29 13:07:54;;;;;;;;;;;17.00;99.90;;;;;;5137678;27;19934;-69
2021/10/29 13:10:19;;;;;;;;;;;17.00;99.90;;;;;;5137517;27;19912;-69
2021/10/29 13:13:03;;;;;;;;;;;17.10;99.90;;;;;;5137412;27;19971;-68
2021/10/29 13:15:30;;;;;;;;;;;17.10;99.90;;;;;;5137462;27;19919;-71
2021/10/29 13:18:03;;;;;;;;;;;17.00;99.90;;;;;;5137518;27;20032;-72
2021/10/29 13:23:29;;;;;;;;;;;17.10;99.90;;;;;;5137190;27;19911;-72
2021/10/29 14:00:55;;;;;;;;;;;17.30;99.90;;;;;;5136299;27;20377;-71
2021/10/29 14:35:02;;;;;;;;;;;17.00;99.90;;;;;;5136018;27;19947;-71
2021/10/29 14:37:38;;;;;;;;;;;17.10;99.90;;;;;;5136187;27;19918;-70
2021/10/29 14:40:11;;;;;;;;;;;17.10;99.90;;;;;;5117188;27;20355;-68
2021/10/29 14:42:41;;;;;;;;;;;17.20;99.90;;;;;;5135435;27;19918;-70
2021/10/29 15:05:57;;;;;;;;;;;17.00;99.90;;;;;;5135441;27;19918;-71
2021/10/29 15:25:57;;;;;;;;;;;16.70;99.90;;;;;;5135073;27;20378;-71
2021/10/29 15:27:52;;;;;;;;;;;16.70;99.90;;;;;;5116885;27;20379;-72
2021/10/29 15:43:53;;;;;;;;;;;16.30;99.90;;;;;;5051787;28;19936;-71
2021/10/29 15:46:33;;;;;;;;;;;16.30;99.90;;;;;;5051942;28;19909;-71
2021/10/29 15:51:31;;;;;;;;;;;16.20;99.90;;;;;;5134503;27;19930;-71
2021/10/29 15:54:00;;;;;;;;;;;16.20;99.90;;;;;;5135223;28;19908;-70
2021/10/29 15:56:32;;;;;;;;;;;16.20;99.90;;;;;;5134601;28;20418;-70
2021/10/29 16:17:36;;;;;;;;;;;16.00;99.90;;;;;;5134497;28;19962;-70
2021/10/29 16:20:03;;;;;;;;;;;15.90;99.90;;;;;;5135033;28;19911;-70
2021/10/29 16:22:33;;;;;;;;;;;15.90;99.90;;;;;;5134570;27;19907;-67
2021/10/29 16:27:27;;;;;;;;;;;15.90;99.90;;;;;;5134420;28;19912;-72
2021/10/29 16:29:52;;;;;;;;;;;15.80;99.90;;;;;;5134467;28;19952;-71
2021/10/29 16:32:49;;;;;;;;;;;15.70;99.90;;;;;;5134408;28;19907;-70
2021/10/29 16:35:04;;;;;;;;;;;15.70;99.90;;;;;;5132771;28;20464;-70
2021/10/29 16:37:29;;;;;;;;;;;15.60;99.90;;;;;;5136847;27;19911;-69
2021/10/29 16:39:55;;;;;;;;;;;15.50;99.90;;;;;;5138567;27;20361;-69
2021/10/29 16:42:20;;;;;;;;;;;15.40;99.90;;;;;;5138205;27;19908;-69
2021/10/29 16:44:46;;;;;;;;;;;15.40;99.90;;;;;;5138146;27;19960;-70
2021/10/29 16:47:12;;;;;;;;;;;15.50;99.90;;;;;;5138087;27;19915;-71
2021/10/29 16:49:38;;;;;;;;;;;15.40;99.90;;;;;;5138609;27;19907;-72
2021/10/29 16:52:03;;;;;;;;;;;15.40;99.90;;;;;;5138030;27;19919;-69
2021/10/29 16:54:29;;;;;;;;;;;15.40;99.90;;;;;;5138005;27;19915;-70
2021/10/29 16:56:54;;;;;;;;;;;15.40;99.90;;;;;;5137873;27;20363;-69
2021/10/29 16:59:20;;;;;;;;;;;15.30;99.90;;;;;;5138161;27;19908;-72
2021/10/29 17:01:48;;;;;;;;;;;15.20;99.90;;;;;;5137804;27;19909;-69
2021/10/29 17:04:15;;;;;;;;;;;15.00;99.90;;;;;;5137790;27;20004;-71
2021/10/29 17:06:41;;;;;;;;;;;15.00;99.90;;;;;;5138038;27;19912;-70
2021/10/29 17:09:07;;;;;;;;;;;14.90;99.90;;;;;;5137727;27;19915;-70
2021/10/29 17:11:32;;;;;;;;;;;14.90;99.90;;;;;;5137911;27;20367;-70
2021/10/29 17:14:00;;;;;;;;;;;14.90;99.90;;;;;;5137428;27;19964;-71
2021/10/29 17:16:25;;;;;;;;;;;14.70;99.90;;;;;;5137519;27;19918;-69
2021/10/29 17:18:51;;;;;;;;;;;14.70;99.90;;;;;;5137522;27;19935;-71
2021/10/29 17:21:17;;;;;;;;;;;14.70;99.90;;;;;;5137546;27;20301;-71
2021/10/29 17:23:43;;;;;;;;;;;14.60;99.90;;;;;;5137402;27;19911;-69
2021/10/29 17:26:08;;;;;;;;;;;14.60;99.90;;;;;;5137413;27;19907;-68
2021/10/29 17:28:34;;;;;;;;;;;14.50;99.90;;;;;;5137640;27;19967;-70
2021/10/29 17:30:59;;;;;;;;;;;14.50;99.90;;;;;;5137592;27;19907;-72
2021/10/29 17:33:25;;;;;;;;;;;14.50;99.90;;;;;;5137240;27;20453;-72
2021/10/29 17:35:50;;;;;;;;;;;14.50;99.90;;;;;;5137098;27;19918;-68
2021/10/29 17:38:16;;;;;;;;;;;14.40;99.90;;;;;;5137664;27;19907;-70
2021/10/29 17:40:42;;;;;;;;;;;14.40;99.90;;;;;;5137096;27;20371;-69
2021/10/29 17:43:08;;;;;;;;;;;14.40;99.90;;;;;;5137092;27;19907;-69
2021/10/29 17:45:33;;;;;;;;;;;14.40;99.90;;;;;;5137065;27;19908;-72
2021/10/29 17:47:59;;;;;;;;;;;14.40;99.90;;;;;;5136219;27;20383;-71
2021/10/29 17:50:24;;;;;;;;;;;14.40;99.90;;;;;;5136866;27;19907;-72
2021/10/29 17:52:52;;;;;;;;;;;14.40;99.90;;;;;;5136897;27;19914;-71
2021/10/29 17:55:18;;;;;;;;;;;14.30;99.90;;;;;;5136841;27;19907;-69
2021/10/29 17:57:43;;;;;;;;;;;14.20;99.90;;;;;;5137068;27;20363;-71
2021/10/29 18:00:09;;;;;;;;;;;14.20;99.90;;;;;;5136726;27;19943;-70
2021/10/29 18:02:35;;;;;;;;;;;14.20;99.90;;;;;;5136694;27;19995;-69
2021/10/29 18:05:00;;;;;;;;;;;14.10;99.90;;;;;;5136928;27;20313;-70
2021/10/29 18:07:27;;;;;;;;;;;14.00;99.90;;;;;;5136592;27;19908;-69
2021/10/29 18:09:54;;;;;;;;;;;14.00;99.90;;;;;;5136531;27;19907;-69
2021/10/29 18:12:20;;;;;;;;;;;14.00;99.90;;;;;;5136500;27;19990;-69
2021/10/29 18:14:45;;;;;;;;;;;14.00;99.90;;;;;;5136791;27;19918;-69
2021/10/29 18:17:13;;;;;;;;;;;14.00;99.90;;;;;;5136313;27;20294;-71
2021/10/29 18:19:39;;;;;;;;;;;14.00;99.90;;;;;;5136298;27;19907;-71
2021/10/29 18:22:06;;;;;;;;;;;14.00;99.90;;;;;;5136259;27;20324;-69
2021/10/29 18:24:32;;;;;;;;;;;14.00;99.90;;;;;;5136556;27;19908;-69
2021/10/29 18:26:58;;;;;;;;;;;13.90;99.90;;;;;;5136434;27;19954;-71
2021/10/29 18:29:24;;;;;;;;;;;13.90;99.90;;;;;;5136126;27;19915;-69
2021/10/29 18:31:49;;;;;;;;;;;13.90;99.90;;;;;;5136648;27;19912;-71
2021/10/29 18:34:15;;;;;;;;;;;13.80;99.90;;;;;;5136016;27;20364;-71
2021/10/29 18:36:41;;;;;;;;;;;13.70;99.90;;;;;;5135943;27;19912;-70
2021/10/29 18:39:06;;;;;;;;;;;13.70;99.90;;;;;;5136246;27;19961;-70
2021/10/29 18:41:32;;;;;;;;;;;13.60;99.90;;;;;;5135911;27;19972;-71
2021/10/29 18:43:59;;;;;;;;;;;13.60;99.90;;;;;;5135840;27;19915;-70
2021/10/29 18:46:25;;;;;;;;;;;13.60;99.90;;;;;;5136091;27;19912;-70
2021/10/29 18:48:50;;;;;;;;;;;13.60;99.90;;;;;;5135698;27;19908;-70
2021/10/29 18:51:19;;;;;;;;;;;13.70;99.90;;;;;;5135712;27;19994;-70
2021/10/29 18:53:45;;;;;;;;;;;13.70;99.90;;;;;;5135568;27;19930;-71
2021/10/29 18:56:11;;;;;;;;;;;13.70;99.90;;;;;;5135555;27;20368;-67
2021/10/29 18:58:38;;;;;;;;;;;13.70;99.90;;;;;;5135875;27;20329;-70
2021/10/29 19:01:05;;;;;;;;;;;13.60;99.90;;;;;;5116801;27;19915;-70
2021/10/29 19:03:31;;;;;;;;;;;13.50;99.90;;;;;;5135504;27;19907;-69
2021/10/29 19:05:57;;;;;;;;;;;13.50;99.90;;;;;;5135485;27;19914;-71
2021/10/29 19:08:23;;;;;;;;;;;13.50;99.90;;;;;;5135683;27;19914;-69
2021/10/29 19:10:48;;;;;;;;;;;13.40;99.90;;;;;;5135315;27;19991;-71
2021/10/29 19:13:14;;;;;;;;;;;13.50;99.90;;;;;;5135320;27;19923;-69